Saturday, January 31, 2015
05:30 UTC
  |  Log In   |  Register Free
Airport Search:

Ormond Beach Municipal Airport
(KOMN)

FAA data valid effective January 08, 2015 - March 05, 2015 (unless otherwise noted).

 
 
 
 
 
 
 
 
 
 
 
 
 
 

Current Aviation Weather for Ormond Beach Municipal Airport (KOMN)

The most recent METAR observation for KOMN was updated at: 0515
METAR Summary (Translated METAR)
KOMN
302350Z 00000KT 10SM SKC 14/10 A3018 RMK LAST
KDAB
310453Z 34007KT 10SM BKN250 12/04 A3025 RMK AO2 SLP243 T01170039 402220078
(7.8 nm SE from KOMN)
KFIN
302350Z VRB05KT 7SM SKC A3020
(11.1 nm NW from KOMN)
TAF Summary (Translated TAF)
KDAB
(7.8 nm SE from KOMN)
301743Z 3018/3118 27012G20KT P6SM FEW015 FEW080 SCT250 FM301900 34011G18KT P6SM SCT250 FM310000 01008KT P6SM FEW250 FM311400 06011G18KT P6SM FEW250
  Airport Weather Conditions for KOMN

 Current Weather at OMN
57° F
Clear
North winds at 0.0 mph
OMN NOAA Radar

Pressure: 30.18 in
Humidity: 77%
Wind: Calm
Dew Point: 50.0°F
Visibility: 10.00 mi


Airport Weather Forecast for KOMN

Translated METAR and TAF for KOMN
Translated METAR for KOMN (0531 UTC 31 January 2015)
found at http://aviationweather.gov/adds/metars/
 
METAR text: KOMN 302350Z 00000KT 10SM SKC 14/10 A3018 RMK LAST
Conditions at: KOMN (ORMOND BEACH VOR, FL, US) observed 2350 UTC 30 January 2015
Temperature: 14.0°C (57°F)
Dewpoint: 10.0°C (50°F) [RH = 77%]
Pressure (altimeter): 30.18 inches Hg (1022.1 mb)
Winds: calm
Visibility: 10 or more miles (16+ km)
Ceiling: at least 12,000 feet AGL
Clouds: clear skies
Weather: no significant weather observed at this time
Translated TAF for KOMN

There is no translated TAF available for this airport

Find All Airport Services Find A Hotel Find A Rental Car Find A Golf Course Find A Restaurant $100 Hamburger



FBO's on the Field
FBO Company Facility Photos Services Transportation Aviation Fuel Prices: Prices include tax
Catering Weather Repair Courtesy Rental Type 100LL JetA JetA+ MOGAS 8087
 
Sunrise Aviation

Currently rated 1.9 by 3 people
FS:Shell
Last Updated: Jan-21
Login to update fuel prices
SS:
Contact Sunrise AviationMore FBO Information
 
Add another FBO Facility Photos Catering Weather Repair Courtesy Rental Type 100LL JetA JetA+ MOGAS 8087
Services Transportation Aviation Fuel Prices: Prices include tax


model-print
model-print
model-print
model-print